Time;durP1;ratioP1;P1;durP2;ratioP2;P2;SDS_P1;SDS_P2;PMS_P1;PMS_P2;Temp;Humidity;BMP_temperature;BMP_pressure;BME280_temperature;BME280_humidity;BME280_pressure;Samples;Min_cycle;Max_cycle;Signal;HPM_P1;HPM_P2
2021/10/21 00:00:51;;;;;;;27.88;17.25;;;307.90;2304.00;;;;;;5095021;28;20023;-79
2021/10/21 00:03:16;;;;;;;33.22;18.58;;;307.90;2304.00;;;;;;5091780;28;20036;-78
2021/10/21 00:05:42;;;;;;;30.42;18.08;;;308.00;2304.00;;;;;;5093570;28;20016;-78
2021/10/21 00:08:08;;;;;;;30.05;18.40;;;307.90;2304.00;;;;;;5093100;28;20111;-78
2021/10/21 00:10:34;;;;;;;27.52;17.08;;;307.90;2304.00;;;;;;5092534;28;20113;-79
2021/10/21 00:12:59;;;;;;;30.52;18.63;;;307.80;2304.00;;;;;;5093621;28;20369;-79
2021/10/21 00:15:25;;;;;;;27.73;17.85;;;307.90;2304.00;;;;;;5093287;28;20032;-78
2021/10/21 00:17:51;;;;;;;35.78;19.30;;;307.90;2304.00;;;;;;5093441;28;20012;-78
2021/10/21 00:20:16;;;;;;;31.33;19.15;;;307.90;2304.00;;;;;;5094598;28;20069;-78
2021/10/21 00:22:43;;;;;;;29.33;19.10;;;307.90;2304.00;;;;;;5094359;28;20081;-78
2021/10/21 00:25:09;;;;;;;31.42;18.52;;;307.80;2304.00;;;;;;5090038;28;20097;-78
2021/10/21 00:27:34;;;;;;;31.10;19.92;;;308.00;2304.00;;;;;;5094403;28;20114;-79
2021/10/21 00:30:00;;;;;;;31.63;19.23;;;307.80;2304.00;;;;;;5093087;28;20502;-79
2021/10/21 00:32:26;;;;;;;;;;;307.70;2304.00;;;;;;5094797;28;20464;-78
2021/10/21 00:34:52;;;;;;;25.27;17.20;;;307.60;2304.00;;;;;;5092649;28;19927;-78
2021/10/21 00:37:17;;;;;;;27.73;18.08;;;307.60;2304.00;;;;;;5094042;28;20054;-78
2021/10/21 00:39:43;;;;;;;33.20;18.88;;;307.60;2304.00;;;;;;5092745;28;20038;-79
2021/10/21 00:42:09;;;;;;;33.15;19.55;;;307.60;2304.00;;;;;;5094043;28;20016;-79
2021/10/21 00:44:35;;;;;;;29.67;18.85;;;307.60;2304.00;;;;;;5092853;28;20490;-79
2021/10/21 00:47:00;;;;;;;32.90;17.85;;;307.30;2304.00;;;;;;5092789;28;20028;-79
2021/10/21 00:49:26;;;;;;;;;;;307.40;2304.00;;;;;;5094370;28;20020;-78
2021/10/21 00:51:52;;;;;;;27.83;17.55;;;307.40;2304.00;;;;;;5092553;28;19904;-78
2021/10/21 00:54:19;;;;;;;28.67;18.83;;;307.40;2304.00;;;;;;5093862;28;20107;-78
2021/10/21 00:56:51;;;;;;;30.58;18.73;;;307.30;2304.00;;;;;;5093606;28;20440;-78
2021/10/21 00:59:18;;;;;;;31.40;19.52;;;307.20;2304.00;;;;;;5091651;28;20020;-79
2021/10/21 01:01:44;;;;;;;26.55;18.80;;;307.30;2304.00;;;;;;5092454;28;20391;-78
2021/10/21 01:04:09;;;;;;;29.50;19.35;;;307.40;2304.00;;;;;;5093616;28;20098;-78
2021/10/21 01:06:35;;;;;;;29.77;17.92;;;307.30;2304.00;;;;;;5093455;28;20017;-79
2021/10/21 01:09:02;;;;;;;28.23;17.48;;;307.20;2304.00;;;;;;5092104;28;20089;-79
2021/10/21 01:11:30;;;;;;;30.30;17.70;;;307.30;2304.00;;;;;;5092455;28;20427;-79
2021/10/21 01:13:55;;;;;;;29.85;19.63;;;307.30;2304.00;;;;;;5093274;28;20028;-79
2021/10/21 01:16:22;;;;;;;30.77;19.17;;;307.20;2304.00;;;;;;5092429;28;20415;-79
2021/10/21 01:18:47;;;;;;;26.58;19.40;;;282.50;2278.40;;;;;;5090195;28;20027;-79
2021/10/21 01:21:14;;;;;;;29.23;17.88;;;282.50;2278.40;;;;;;5076520;28;20091;-79
2021/10/21 01:23:40;;;;;;;32.53;18.95;;;307.30;2304.00;;;;;;5087063;28;20020;-78
2021/10/21 01:26:10;;;;;;;29.38;17.17;;;282.40;2278.40;;;;;;5093516;28;20031;-79
2021/10/21 01:28:37;;;;;;;26.13;17.45;;;282.20;2278.40;;;;;;5089466;28;20105;-79
2021/10/21 01:31:03;;;;;;;28.85;17.52;;;282.20;2278.40;;;;;;5092294;28;20045;-78
2021/10/21 01:33:30;;;;;;;30.70;18.67;;;282.10;2278.40;;;;;;5093536;28;20020;-79
2021/10/21 01:35:56;;;;;;;30.05;18.75;;;282.00;2278.40;;;;;;5092172;28;20016;-79
2021/10/21 01:38:21;;;;;;;28.63;18.60;;;282.00;2278.40;;;;;;5091901;28;20369;-79
2021/10/21 01:40:47;;;;;;;28.20;17.27;;;282.00;2278.40;;;;;;5092062;28;20031;-78
2021/10/21 01:43:14;;;;;;;27.05;16.90;;;282.00;2278.40;;;;;;5092147;28;20472;-79
2021/10/21 01:45:40;;;;;;;26.40;17.40;;;282.00;2278.40;;;;;;5092997;28;20020;-78
2021/10/21 01:48:06;;;;;;;26.65;18.02;;;282.00;2278.40;;;;;;5092189;28;20128;-79
2021/10/21 01:50:32;;;;;;;30.05;18.00;;;282.00;2278.40;;;;;;5093155;28;20095;-78
2021/10/21 01:52:58;;;;;;;29.48;18.65;;;282.10;2278.40;;;;;;5091697;28;20016;-78
2021/10/21 01:55:25;;;;;;;30.30;18.73;;;282.00;2278.40;;;;;;5091932;28;20528;-78
2021/10/21 01:57:51;;;;;;;29.80;20.33;;;282.00;2278.40;;;;;;5091772;28;20031;-79
2021/10/21 02:00:20;;;;;;;30.98;18.27;;;282.00;2278.40;;;;;;5091543;28;20043;-79
2021/10/21 02:02:47;;;;;;;36.83;19.95;;;281.90;2278.40;;;;;;5092060;28;20052;-79
2021/10/21 02:05:14;;;;;;;28.58;17.95;;;281.80;2278.40;;;;;;5093049;28;20016;-79
2021/10/21 02:07:41;;;;;;;28.52;19.00;;;281.90;2278.40;;;;;;5091674;28;20080;-78
2021/10/21 02:10:18;;;;;;;28.42;18.33;;;281.80;2278.40;;;;;;5092843;28;20491;-79
2021/10/21 02:12:45;;;;;;;31.42;19.52;;;282.00;2278.40;;;;;;5089587;28;20043;-79
2021/10/21 02:15:11;;;;;;;31.20;17.80;;;281.90;2278.40;;;;;;5091144;28;20491;-79
2021/10/21 02:17:37;;;;;;;30.85;19.08;;;281.80;2278.40;;;;;;5091644;28;20069;-79
2021/10/21 02:20:04;;;;;;;34.25;19.60;;;281.80;2278.40;;;;;;5090671;28;20032;-79
2021/10/21 02:22:30;;;;;;;31.55;18.33;;;281.80;2278.40;;;;;;5091525;28;20047;-79
2021/10/21 02:24:56;;;;;;;31.58;19.67;;;281.80;2278.40;;;;;;5084940;28;20051;-79
2021/10/21 02:27:21;;;;;;;26.77;17.02;;;281.70;2278.40;;;;;;5091174;28;20103;-79
2021/10/21 02:29:47;;;;;;;;;;;281.70;2278.40;;;;;;5096054;28;20486;-79
2021/10/21 02:32:13;;;;;;;25.38;17.30;;;281.70;2278.40;;;;;;5095573;28;19904;-79
2021/10/21 02:34:39;;;;;;;30.23;19.77;;;281.60;2278.40;;;;;;5095432;28;20361;-79
2021/10/21 02:37:04;;;;;;;;;;;256.90;2252.80;;;;;;5097303;28;20096;-79
2021/10/21 02:39:30;;;;;;;31.35;18.92;;;256.90;2252.80;;;;;;5094704;28;19994;-78
2021/10/21 02:41:55;;;;;;;;;;;256.90;2252.80;;;;;;5094905;28;20031;-78
2021/10/21 02:44:21;;;;;;;26.27;17.05;;;256.90;2252.80;;;;;;5095430;28;19908;-79
2021/10/21 02:46:47;;;;;;;28.77;18.95;;;256.90;2252.80;;;;;;5088362;28;20070;-79
2021/10/21 02:49:13;;;;;;;;;;;256.90;2252.80;;;;;;5083410;28;20031;-78
2021/10/21 02:51:40;;;;;;;27.90;17.77;;;256.90;2252.80;;;;;;5084728;28;19995;-78
2021/10/21 02:54:07;;;;;;;31.98;18.92;;;256.90;2252.80;;;;;;5095101;28;20069;-79
2021/10/21 02:56:33;;;;;;;30.85;18.63;;;281.60;2278.40;;;;;;5096305;28;20048;-78
2021/10/21 02:58:59;;;;;;;29.35;18.85;;;281.70;2278.40;;;;;;5096105;28;20057;-79
2021/10/21 03:01:24;;;;;;;;;;;281.70;2278.40;;;;;;5095516;28;20031;-79
2021/10/21 03:03:50;;;;;;;31.33;18.95;;;281.60;2278.40;;;;;;5095034;28;19908;-79
2021/10/21 03:06:16;;;;;;;28.88;17.85;;;281.60;2278.40;;;;;;5092210;28;20375;-78
2021/10/21 03:08:41;;;;;;;;;;;256.90;2252.80;;;;;;5093604;28;20479;-78
2021/10/21 03:11:07;;;;;;;31.98;18.10;;;256.90;2252.80;;;;;;5084897;28;19931;-78
2021/10/21 03:13:32;;;;;;;;;;;256.90;2252.80;;;;;;5094999;28;20440;-78
2021/10/21 03:15:59;;;;;;;35.85;18.85;;;256.90;2252.80;;;;;;5094072;28;19911;-78
2021/10/21 03:18:24;;;;;;;33.72;20.17;;;256.90;2252.80;;;;;;5094632;28;20028;-78
2021/10/21 03:20:50;;;;;;;35.65;18.77;;;281.60;2278.40;;;;;;5094703;28;20393;-78
2021/10/21 03:23:19;;;;;;;31.63;18.95;;;256.90;2252.80;;;;;;5094413;28;20026;-78
2021/10/21 03:25:45;;;;;;;30.35;19.05;;;281.60;2278.40;;;;;;5094458;28;20502;-78
2021/10/21 03:28:11;;;;;;;32.97;20.02;;;281.60;2278.40;;;;;;5094497;28;20020;-78
2021/10/21 03:30:37;;;;;;;30.80;19.48;;;281.70;2278.40;;;;;;5092946;28;20402;-79
2021/10/21 03:33:02;;;;;;;;;;;281.60;2278.40;;;;;;5094364;28;20038;-78
2021/10/21 03:35:28;;;;;;;33.38;18.23;;;281.70;2278.40;;;;;;5093861;28;20363;-78
2021/10/21 03:37:54;;;;;;;33.22;18.92;;;281.60;2278.40;;;;;;5094014;28;20042;-78
2021/10/21 03:40:19;;;;;;;;;;;281.60;2278.40;;;;;;5091672;28;20107;-78
2021/10/21 03:42:45;;;;;;;29.55;17.10;;;281.60;2278.40;;;;;;5089490;28;19908;-79
2021/10/21 03:45:11;;;;;;;;;;;281.60;2278.40;;;;;;5094725;28;20099;-79
2021/10/21 03:47:36;;;;;;;28.27;17.23;;;281.60;2278.40;;;;;;5085468;28;20020;-78
2021/10/21 03:50:03;;;;;;;32.20;19.35;;;281.60;2278.40;;;;;;5095441;28;20527;-78
2021/10/21 03:52:28;;;;;;;32.88;19.63;;;281.60;2278.40;;;;;;5095326;28;20031;-79
2021/10/21 03:54:54;;;;;;;33.22;18.38;;;281.60;2278.40;;;;;;5094503;28;20035;-79
2021/10/21 03:57:20;;;;;;;;;;;281.70;2278.40;;;;;;5095202;28;20048;-79
2021/10/21 03:59:45;;;;;;;33.55;20.02;;;281.70;2278.40;;;;;;5095186;28;19904;-79
2021/10/21 04:02:11;;;;;;;29.20;18.60;;;281.70;2278.40;;;;;;5095157;28;20024;-78
2021/10/21 04:04:37;;;;;;;30.65;18.30;;;281.70;2278.40;;;;;;5093851;28;20023;-79
2021/10/21 04:07:03;;;;;;;28.55;18.17;;;281.70;2278.40;;;;;;5093903;28;20384;-78
2021/10/21 04:09:29;;;;;;;34.35;19.33;;;281.70;2278.40;;;;;;5093402;28;20056;-78
2021/10/21 04:11:54;;;;;;;30.20;19.50;;;281.70;2278.40;;;;;;5090764;28;20028;-79
2021/10/21 04:14:20;;;;;;;34.83;18.92;;;281.80;2278.40;;;;;;5093649;28;20035;-79
2021/10/21 04:16:46;;;;;;;;;;;281.80;2278.40;;;;;;5094129;28;20023;-79
2021/10/21 04:19:12;;;;;;;28.35;17.85;;;281.70;2278.40;;;;;;5080022;28;20398;-79
2021/10/21 04:21:37;;;;;;;30.00;17.63;;;281.70;2278.40;;;;;;5093130;28;20020;-79
2021/10/21 04:24:03;;;;;;;29.30;17.58;;;281.70;2278.40;;;;;;5093500;28;20074;-79
2021/10/21 04:26:29;;;;;;;;;;;281.70;2278.40;;;;;;5093219;28;20571;-79
2021/10/21 04:28:54;;;;;;;32.38;18.05;;;281.70;2278.40;;;;;;5093498;28;19911;-79
2021/10/21 04:31:20;;;;;;;;;;;281.70;2278.40;;;;;;5093830;28;20048;-78
2021/10/21 04:33:46;;;;;;;28.92;17.95;;;281.70;2278.40;;;;;;5093236;28;20380;-79
2021/10/21 04:36:11;;;;;;;;;;;281.70;2278.40;;;;;;5093256;28;20024;-79
2021/10/21 04:38:37;;;;;;;28.33;17.90;;;281.70;2278.40;;;;;;5093010;28;19947;-78
2021/10/21 04:41:03;;;;;;;;;;;281.70;2278.40;;;;;;5094994;28;20016;-79
2021/10/21 04:43:29;;;;;;;32.88;19.02;;;281.80;2278.40;;;;;;5093280;28;19908;-80
2021/10/21 04:45:54;;;;;;;29.15;18.75;;;281.70;2278.40;;;;;;5092843;28;20635;-80
2021/10/21 04:48:20;;;;;;;29.30;18.95;;;281.80;2278.40;;;;;;5089741;28;20016;-79
2021/10/21 04:50:46;;;;;;;;;;;281.80;2278.40;;;;;;5092449;28;20070;-81
2021/10/21 04:53:11;;;;;;;32.75;18.15;;;281.70;2278.40;;;;;;5093494;28;19911;-81
2021/10/21 04:55:37;;;;;;;32.35;19.70;;;281.60;2278.40;;;;;;5093448;28;20051;-80
2021/10/21 04:58:04;;;;;;;;;;;281.70;2278.40;;;;;;5093645;28;20012;-80
2021/10/21 05:00:30;;;;;;;33.53;21.03;;;281.70;2278.40;;;;;;5093481;28;19904;-80
2021/10/21 05:02:57;;;;;;;27.63;18.40;;;281.70;2278.40;;;;;;5093351;28;20149;-81
2021/10/21 05:05:23;;;;;;;35.17;20.80;;;281.60;2278.40;;;;;;5093159;28;20020;-81
2021/10/21 05:07:49;;;;;;;32.55;18.90;;;281.60;2278.40;;;;;;5093291;28;20024;-80
2021/10/21 05:10:15;;;;;;;33.58;19.02;;;281.60;2278.40;;;;;;5092781;28;20048;-81
2021/10/21 05:12:41;;;;;;;31.35;19.52;;;281.60;2278.40;;;;;;5089803;28;20028;-80
2021/10/21 05:15:07;;;;;;;33.90;19.77;;;281.60;2278.40;;;;;;5092997;28;20050;-80
2021/10/21 05:17:33;;;;;;;31.70;20.15;;;281.60;2278.40;;;;;;5091886;28;20029;-79
2021/10/21 05:19:59;;;;;;;31.05;18.85;;;256.90;2252.80;;;;;;5092940;28;20024;-80
2021/10/21 05:22:25;;;;;;;33.10;18.15;;;256.90;2252.80;;;;;;5091830;28;20085;-80
2021/10/21 05:24:51;;;;;;;29.38;19.70;;;256.90;2252.80;;;;;;5092326;28;20020;-80
2021/10/21 05:27:17;;;;;;;33.67;19.55;;;256.90;2252.80;;;;;;5092567;28;20096;-79
2021/10/21 05:29:42;;;;;;;;;;;256.90;2252.80;;;;;;5093047;28;20348;-79
2021/10/21 05:32:08;;;;;;;33.10;19.60;;;256.90;2252.80;;;;;;5092699;28;19911;-79
2021/10/21 05:34:35;;;;;;;;;;;256.90;2252.80;;;;;;5093808;28;20151;-76
2021/10/21 05:37:02;;;;;;;38.22;19.52;;;281.60;2278.40;;;;;;5092254;28;19994;-78
2021/10/21 05:39:32;;;;;;;39.45;20.00;;;281.60;2278.40;;;;;;5091957;28;20516;-79
2021/10/21 05:41:58;;;;;;;35.45;20.17;;;281.70;2278.40;;;;;;5093358;28;20051;-80
2021/10/21 05:44:25;;;;;;;27.33;19.20;;;281.80;2278.40;;;;;;5092378;28;20043;-79
2021/10/21 05:46:51;;;;;;;30.67;19.35;;;281.80;2278.40;;;;;;5093580;28;20024;-82
2021/10/21 05:49:17;;;;;;;31.17;19.08;;;281.80;2278.40;;;;;;5078403;28;20086;-81
2021/10/21 05:51:44;;;;;;;34.78;19.85;;;281.80;2278.40;;;;;;5089781;28;20164;-81
2021/10/21 05:54:10;;;;;;;32.00;21.08;;;282.50;2278.40;;;;;;5092122;28;20455;-79
2021/10/21 05:56:35;;;;;;;30.52;21.17;;;282.00;2278.40;;;;;;5091954;28;20059;-83
2021/10/21 05:59:01;;;;;;;29.40;19.30;;;282.10;2278.40;;;;;;5092434;28;20028;-79
2021/10/21 06:01:27;;;;;;;35.17;20.25;;;282.10;2278.40;;;;;;5092694;28;20065;-88
2021/10/21 06:03:52;;;;;;;36.33;19.75;;;282.10;2278.40;;;;;;5092106;28;20051;-84
2021/10/21 06:06:18;;;;;;;;;;;282.20;2278.40;;;;;;5093771;28;20035;-78
2021/10/21 06:08:47;;;;;;;33.47;19.15;;;282.20;2278.40;;;;;;5092010;28;19904;-81
2021/10/21 06:11:13;;;;;;;35.85;21.17;;;282.20;2278.40;;;;;;5092089;28;20057;-80
2021/10/21 06:13:39;;;;;;;36.65;21.10;;;282.20;2278.40;;;;;;5092314;28;20085;-79
2021/10/21 06:16:06;;;;;;;31.38;19.33;;;282.40;2278.40;;;;;;5092264;28;20093;-79
2021/10/21 06:18:36;;;;;;;34.95;19.80;;;282.40;2278.40;;;;;;5092704;28;20020;-88
2021/10/21 06:21:06;;;;;;;42.33;19.73;;;282.40;2278.40;;;;;;5092009;28;20517;-83
2021/10/21 06:23:31;;;;;;;32.65;19.35;;;307.20;2304.00;;;;;;5081297;28;20016;-86
2021/10/21 06:25:57;;;;;;;37.22;22.85;;;307.20;2304.00;;;;;;5082131;28;20526;-85
2021/10/21 06:28:23;;;;;;;;;;;307.30;2304.00;;;;;;5092460;28;20428;-78
2021/10/21 06:30:48;;;;;;;28.45;17.70;;;307.40;2304.00;;;;;;5092136;28;20002;-83
2021/10/21 06:33:15;;;;;;;;;;;307.50;2304.00;;;;;;5092494;28;20384;-82
2021/10/21 06:35:45;;;;;;;30.30;18.23;;;307.50;2304.00;;;;;;5091868;28;19919;-79
2021/10/21 06:38:13;;;;;;;30.80;18.98;;;307.40;2304.00;;;;;;5091737;28;20031;-84
2021/10/21 06:40:39;;;;;;;32.13;19.13;;;307.60;2304.00;;;;;;5091943;28;20020;-81
2021/10/21 06:43:05;;;;;;;32.08;18.23;;;307.80;2304.00;;;;;;5092246;28;20127;-83
2021/10/21 06:45:33;;;;;;;30.13;18.60;;;307.90;2304.00;;;;;;5091820;28;20519;-83
2021/10/21 06:47:59;;;;;;;32.05;18.88;;;308.00;2304.00;;;;;;5091600;28;20050;-84
2021/10/21 06:50:25;;;;;;;28.00;17.45;;;308.10;2304.00;;;;;;5090090;28;20027;-83
2021/10/21 06:52:51;;;;;;;30.80;18.92;;;332.80;2329.60;;;;;;5091694;28;20028;-84
2021/10/21 06:55:17;;;;;;;37.28;19.67;;;333.00;2329.60;;;;;;5092072;28;20410;-83
2021/10/21 06:57:47;;;;;;;26.00;16.65;;;333.10;2329.60;;;;;;5091978;28;20017;-80
2021/10/21 07:00:14;;;;;;;24.05;17.10;;;333.20;2329.60;;;;;;5091115;28;20387;-82
2021/10/21 07:02:40;;;;;;;30.27;18.98;;;333.30;2329.60;;;;;;5091771;28;20021;-82
2021/10/21 07:05:06;;;;;;;26.40;19.45;;;333.40;2329.60;;;;;;5089046;28;20023;-82
2021/10/21 07:07:31;;;;;;;28.55;17.02;;;333.50;2329.60;;;;;;5091759;28;20032;-83
2021/10/21 07:09:59;;;;;;;26.60;17.52;;;333.60;2329.60;;;;;;5091794;28;20077;-82
2021/10/21 07:12:25;;;;;;;25.30;17.17;;;333.60;2329.60;;;;;;5092979;28;20063;-80
2021/10/21 07:14:51;;;;;;;27.08;16.67;;;333.60;2329.60;;;;;;5095020;28;20518;-81
2021/10/21 07:17:17;;;;;;;;;;;333.70;2329.60;;;;;;5095493;28;20510;-82
2021/10/21 07:19:43;;;;;;;36.88;19.50;;;333.70;2329.60;;;;;;5095132;28;19908;-79
2021/10/21 07:22:08;;;;;;;33.78;17.80;;;358.40;2329.60;;;;;;5095526;28;20024;-81
2021/10/21 07:24:34;;;;;;;29.42;17.75;;;358.50;2329.60;;;;;;5095679;28;20561;-79
2021/10/21 07:27:00;;;;;;;28.55;18.77;;;358.60;2329.60;;;;;;5096062;28;20055;-82
2021/10/21 07:29:26;;;;;;;33.55;18.05;;;358.70;2329.60;;;;;;5094263;28;20035;-79
2021/10/21 07:31:51;;;;;;;25.67;17.38;;;358.80;2329.60;;;;;;5095155;28;20387;-82
2021/10/21 07:34:17;;;;;;;26.08;16.80;;;359.00;2329.60;;;;;;5095824;28;20495;-81
2021/10/21 07:36:43;;;;;;;30.20;17.17;;;359.10;2329.60;;;;;;5088510;28;20020;-81
2021/10/21 07:39:09;;;;;;;28.70;18.23;;;359.10;2329.60;;;;;;5093251;28;20491;-81
2021/10/21 07:41:35;;;;;;;26.83;16.77;;;359.20;2329.60;;;;;;5094881;28;20028;-81
2021/10/21 07:44:01;;;;;;;30.95;16.67;;;384.00;2329.60;;;;;;5095864;28;20012;-80
2021/10/21 07:46:26;;;;;;;27.58;16.45;;;384.20;2329.60;;;;;;5093005;28;20024;-79
2021/10/21 07:48:52;;;;;;;30.27;17.85;;;384.30;2329.60;;;;;;5093927;28;20391;-83
2021/10/21 07:51:18;;;;;;;24.98;16.55;;;384.40;2329.60;;;;;;5093411;28;20434;-80
2021/10/21 07:53:44;;;;;;;24.88;16.55;;;384.50;2329.60;;;;;;5093934;28;20027;-79
2021/10/21 07:56:10;;;;;;;31.88;16.92;;;384.70;2329.60;;;;;;5093963;28;20027;-79
2021/10/21 07:58:35;;;;;;;34.78;17.83;;;384.80;2329.60;;;;;;5093897;28;20533;-77
2021/10/21 08:01:01;;;;;;;27.33;16.30;;;384.90;2329.60;;;;;;5093697;28;20056;-78
2021/10/21 08:03:27;;;;;;;27.65;16.85;;;409.70;2355.20;;;;;;5095250;28;20021;-78
2021/10/21 08:05:53;;;;;;;27.33;16.77;;;409.80;2355.20;;;;;;5093286;28;20442;-77
2021/10/21 08:08:18;;;;;;;28.60;17.10;;;410.00;2355.20;;;;;;5094694;28;21365;-77
2021/10/21 08:10:44;;;;;;;22.80;14.68;;;410.00;2355.20;;;;;;5093660;28;20083;-79
2021/10/21 08:13:12;;;;;;;27.92;17.48;;;410.20;2355.20;;;;;;5093217;28;20024;-78
2021/10/21 08:15:37;;;;;;;21.38;14.68;;;410.30;2355.20;;;;;;5094845;28;20028;-78
2021/10/21 08:18:03;;;;;;;23.83;14.45;;;410.40;2355.20;;;;;;5093413;28;20019;-79
2021/10/21 08:20:29;;;;;;;21.33;14.43;;;410.50;2355.20;;;;;;5083689;28;20032;-79
2021/10/21 08:22:55;;;;;;;26.63;15.88;;;435.20;2355.20;;;;;;5091720;28;20566;-79
2021/10/21 08:25:24;;;;;;;24.00;15.00;;;435.30;2355.20;;;;;;5093026;28;20455;-78
2021/10/21 08:27:50;;;;;;;27.00;17.08;;;435.30;2355.20;;;;;;5093573;28;20460;-78
2021/10/21 08:30:20;;;;;;;28.73;16.48;;;435.30;2355.20;;;;;;5089041;28;20112;-79
2021/10/21 08:32:46;;;;;;;21.90;15.55;;;435.40;2355.20;;;;;;5084811;28;20098;-79
2021/10/21 08:35:15;;;;;;;18.85;13.02;;;435.40;2355.20;;;;;;5090512;28;20032;-80
2021/10/21 08:37:41;;;;;;;19.15;12.45;;;435.50;2355.20;;;;;;5083269;28;20460;-79
2021/10/21 08:40:08;;;;;;;19.80;12.43;;;435.50;2355.20;;;;;;5087652;28;20027;-78
2021/10/21 08:42:34;;;;;;;20.58;11.32;;;435.60;2355.20;;;;;;5093094;28;20024;-79
2021/10/21 08:45:00;;;;;;;20.88;12.65;;;435.60;2355.20;;;;;;5086357;28;20016;-77
2021/10/21 08:47:28;;;;;;;19.30;12.07;;;435.80;2355.20;;;;;;5093253;28;20032;-78
2021/10/21 08:49:55;;;;;;;20.70;12.90;;;435.80;2355.20;;;;;;5094331;28;20024;-77
2021/10/21 08:52:22;;;;;;;19.65;11.70;;;435.40;2355.20;;;;;;5094025;28;20433;-79
2021/10/21 08:54:48;;;;;;;19.98;12.32;;;435.90;2355.20;;;;;;5092642;28;20038;-78
2021/10/21 08:57:14;;;;;;;23.40;12.32;;;436.00;2355.20;;;;;;5091071;28;20103;-78
2021/10/21 08:59:41;;;;;;;16.33;11.95;;;436.00;2355.20;;;;;;5089185;28;20471;-79
2021/10/21 09:02:19;;;;;;;20.35;11.98;;;436.00;2355.20;;;;;;5090713;28;20028;-78
2021/10/21 09:10:14;;;;;;;19.27;13.23;;;460.80;2380.80;;;;;;5087607;28;20123;-77
2021/10/21 09:12:42;;;;;;;18.95;12.23;;;461.00;2380.80;;;;;;5089653;28;20024;-78
2021/10/21 09:15:10;;;;;;;21.80;14.05;;;461.20;2380.80;;;;;;5087444;28;20036;-78
2021/10/21 09:17:36;;;;;;;20.23;13.32;;;461.40;2380.80;;;;;;5088894;28;20036;-79
2021/10/21 09:20:38;;;;;;;21.60;13.40;;;461.40;2380.80;;;;;;5091700;28;20077;-78
2021/10/21 09:23:10;;;;;;;22.88;13.73;;;;;;;;;;5090184;28;20043;-79
2021/10/21 09:25:37;;;;;;;20.67;11.98;;;461.50;2380.80;;;;;;5092038;28;20031;-78
2021/10/21 09:28:27;;;;;;;20.27;12.60;;;486.40;2355.20;;;;;;5091789;28;20040;-78
2021/10/21 09:31:05;;;;;;;18.75;11.70;;;486.70;2329.60;;;;;;5091214;28;20471;-79
2021/10/21 09:33:56;;;;;;;19.58;11.35;;;486.80;2252.80;;;;;;5090758;28;20123;-78
2021/10/21 09:36:26;;;;;;;18.67;11.68;;;487.00;2278.40;;;;;;5088632;28;20024;-79
2021/10/21 09:38:54;;;;;;;20.13;11.77;;;487.20;2227.20;;;;;;5091445;28;20480;-80
2021/10/21 09:41:30;;;;;;;15.93;10.43;;;487.30;2227.20;;;;;;5092375;28;20077;-82
2021/10/21 09:43:57;;;;;;;17.02;9.48;;;512.00;2150.40;;;;;;5085960;28;20017;-81
2021/10/21 09:46:41;;;;;;;19.27;10.68;;;512.00;2124.80;;;;;;5090721;28;20024;-81
2021/10/21 09:49:25;;;;;;;19.05;9.57;;;512.50;2099.20;;;;;;5092443;28;20046;-80
2021/10/21 09:51:52;;;;;;;20.80;8.90;;;512.60;2048.00;;;;;;5092901;28;20099;-80
2021/10/21 09:54:19;;;;;;;12.88;8.50;;;512.70;2073.60;;;;;;5091986;28;20043;-81
2021/10/21 09:57:13;;;;;;;15.85;9.85;;;512.90;1996.80;;;;;;5091879;28;20031;-80
2021/10/21 09:59:40;;;;;;;15.60;8.80;;;537.90;1971.20;;;;;;5095439;28;20039;-80
2021/10/21 10:02:22;;;;;;;18.17;9.82;;;538.00;1971.20;;;;;;5092530;28;20012;-79
2021/10/21 10:04:54;;;;;;;16.45;9.23;;;538.10;1945.60;;;;;;5076081;28;20038;-79
2021/10/21 10:07:25;;;;;;;12.55;7.35;;;538.40;1945.60;;;;;;5080362;28;20016;-80
2021/10/21 10:09:51;;;;;;;14.27;7.53;;;538.50;1843.20;;;;;;5084001;28;20055;-80
2021/10/21 10:12:18;;;;;;;12.60;8.18;;;538.50;1843.20;;;;;;5089355;28;20020;-82
2021/10/21 10:14:46;;;;;;;12.27;7.72;;;563.30;1894.40;;;;;;5085924;28;20037;-83
2021/10/21 10:17:16;;;;;;;14.85;7.88;;;563.50;1817.60;;;;;;5078803;28;20077;-80
2021/10/21 10:19:47;;;;;;;11.38;7.00;;;563.40;1817.60;;;;;;5086861;28;20029;-79
2021/10/21 10:22:19;;;;;;;12.50;8.40;;;563.60;1817.60;;;;;;5082027;28;20016;-79
2021/10/21 10:24:46;;;;;;;16.02;8.45;;;563.90;1740.80;;;;;;5091608;28;20028;-85
2021/10/21 10:27:30;;;;;;;13.20;7.40;;;588.80;1638.40;;;;;;5090327;28;20039;-80
2021/10/21 10:30:00;;;;;;;18.40;7.90;;;;;;;;;;5089548;28;20028;-79
2021/10/21 10:32:46;;;;;;;14.18;8.20;;;589.10;1638.40;;;;;;5091640;28;20047;-81
2021/10/21 10:35:32;;;;;;;22.63;8.23;;;588.80;1664.00;;;;;;5089618;28;20127;-81
2021/10/21 10:38:06;;;;;;;11.05;7.38;;;589.00;1715.20;;;;;;5084414;28;20055;-79
2021/10/21 10:40:40;;;;;;;14.55;8.48;;;;;;;;;;5091743;28;20067;-80
2021/10/21 10:43:07;;;;;;;14.10;7.80;;;589.50;1612.80;;;;;;5091778;28;20425;-80
2021/10/21 10:45:44;;;;;;;14.32;7.90;;;589.60;1587.20;;;;;;5094381;28;20043;-79
2021/10/21 10:48:11;;;;;;;11.35;7.13;;;589.60;1612.80;;;;;;5090982;28;20033;-79
2021/10/21 10:50:43;;;;;;;13.90;6.93;;;589.40;1612.80;;;;;;5089693;28;20028;-81
2021/10/21 10:53:09;;;;;;;13.52;6.88;;;589.60;1536.00;;;;;;5088510;28;20028;-79
2021/10/21 10:55:44;;;;;;;12.63;6.50;;;589.70;1510.40;;;;;;5091820;28;20090;-80
2021/10/21 10:58:15;;;;;;;14.55;6.97;;;614.50;1510.40;;;;;;5088028;28;20394;-78
2021/10/21 11:00:49;;;;;;;9.32;5.85;;;;;;;;;;5082409;28;20479;-79
2021/10/21 11:03:31;;;;;;;12.15;6.35;;;;;;;;;;5092455;28;20061;-79
2021/10/21 11:06:02;;;;;;;8.90;6.40;;;615.30;1382.40;;;;;;5082117;28;20074;-79
2021/10/21 11:08:47;;;;;;;11.88;6.90;;;615.30;1382.40;;;;;;5092481;28;20035;-78
2021/10/21 11:11:48;;;;;;;9.80;5.38;;;640.00;1382.40;;;;;;5093141;28;20028;-78
2021/10/21 11:14:20;;;;;;;9.75;6.13;;;640.10;1305.60;;;;;;5089558;28;20395;-78
2021/10/21 11:16:50;;;;;;;9.32;6.57;;;640.20;1331.20;;;;;;5091409;28;20024;-79
2021/10/21 11:19:50;;;;;;;12.68;6.13;;;640.30;1356.80;;;;;;5089848;28;20020;-80
2021/10/21 11:22:21;;;;;;;10.80;6.93;;;640.10;1382.40;;;;;;5029320;28;20033;-82
2021/10/21 11:24:51;;;;;;;12.32;7.93;;;640.20;1356.80;;;;;;5013102;28;20030;-80
2021/10/21 11:27:32;;;;;;;11.35;7.32;;;640.40;1356.80;;;;;;5033694;28;20021;-79
2021/10/21 11:30:10;;;;;;;14.88;7.28;;;640.00;1356.80;;;;;;5017003;28;20464;-79
2021/10/21 11:32:44;;;;;;;13.40;7.03;;;640.20;1382.40;;;;;;5016482;28;20044;-80
2021/10/21 11:35:41;;;;;;;13.18;7.30;;;640.10;1382.40;;;;;;5007148;28;20033;-80
2021/10/21 11:38:11;;;;;;;14.38;8.43;;;640.20;1382.40;;;;;;4941678;28;20032;-79
2021/10/21 11:40:42;;;;;;;11.10;7.15;;;640.10;1382.40;;;;;;4938089;29;20035;-79
2021/10/21 11:43:23;;;;;;;11.85;7.43;;;640.10;1356.80;;;;;;4935133;29;20535;-81
2021/10/21 11:46:01;;;;;;;13.07;6.85;;;615.30;1408.00;;;;;;4919582;29;20031;-80
2021/10/21 11:48:33;;;;;;;11.95;7.10;;;615.30;1408.00;;;;;;4935605;29;20032;-80
2021/10/21 11:51:03;;;;;;;10.38;6.72;;;615.20;1408.00;;;;;;4933264;29;20052;-80
2021/10/21 11:53:30;;;;;;;8.88;6.72;;;640.00;1408.00;;;;;;4916895;29;20067;-79
2021/10/21 11:55:56;;;;;;;10.98;5.90;;;640.10;1382.40;;;;;;4919922;29;20039;-81
2021/10/21 11:58:28;;;;;;;13.55;6.13;;;640.00;1331.20;;;;;;4968584;28;20038;-80
2021/10/21 12:00:59;;;;;;;12.18;6.40;;;615.10;1331.20;;;;;;5001744;28;20120;-79
2021/10/21 12:03:36;;;;;;;10.60;6.05;;;614.80;1356.80;;;;;;4987272;28;20027;-80
2021/10/21 12:06:03;;;;;;;10.63;6.05;;;614.60;1382.40;;;;;;5003940;28;20045;-78
2021/10/21 12:08:29;;;;;;;8.00;5.72;;;614.50;1408.00;;;;;;5011735;28;20034;-79
2021/10/21 12:10:57;;;;;;;9.07;5.40;;;589.70;1408.00;;;;;;5009155;28;20100;-79
2021/10/21 12:13:29;;;;;;;10.40;5.82;;;589.70;1382.40;;;;;;4995937;28;20033;-78
2021/10/21 12:16:00;;;;;;;8.32;5.70;;;589.70;1408.00;;;;;;5091579;28;20063;-79
2021/10/21 12:18:30;;;;;;;19.42;6.75;;;614.40;1408.00;;;;;;5090471;28;20055;-80
2021/10/21 12:21:03;;;;;;;10.50;5.57;;;614.40;1433.60;;;;;;5092874;28;20044;-80